sensor_id;sensor_type;location;lat;lon;timestamp;pressure;altitude;pressure_sealevel;temperature;humidity
57050;BME280;42935;50.966;16.992;2022-10-16T00:02:04;101449.01;;;12.10;100.00
57050;BME280;42935;50.966;16.992;2022-10-16T00:05:09;101452.91;;;12.17;100.00
57050;BME280;42935;50.966;16.992;2022-10-16T00:08:14;101460.36;;;12.04;100.00
57050;BME280;42935;50.966;16.992;2022-10-16T00:11:30;101458.58;;;12.03;100.00
57050;BME280;42935;50.966;16.992;2022-10-16T00:14:39;101449.41;;;12.11;100.00
57050;BME280;42935;50.966;16.992;2022-10-16T00:17:51;101450.87;;;12.09;100.00
57050;BME280;42935;50.966;16.992;2022-10-16T00:21:30;101444.53;;;12.00;100.00
57050;BME280;42935;50.966;16.992;2022-10-16T00:24:42;101437.44;;;11.97;100.00
57050;BME280;42935;50.966;16.992;2022-10-16T00:27:54;101441.13;;;11.97;100.00
57050;BME280;42935;50.966;16.992;2022-10-16T00:31:05;101424.99;;;11.92;100.00
57050;BME280;42935;50.966;16.992;2022-10-16T00:34:15;101427.99;;;11.96;100.00
57050;BME280;42935;50.966;16.992;2022-10-16T00:37:52;101425.21;;;11.95;100.00
57050;BME280;42935;50.966;16.992;2022-10-16T00:41:35;101438.34;;;12.05;100.00
57050;BME280;42935;50.966;16.992;2022-10-16T00:44:53;101451.58;;;12.14;100.00
57050;BME280;42935;50.966;16.992;2022-10-16T00:48:11;101454.41;;;12.09;100.00
57050;BME280;42935;50.966;16.992;2022-10-16T00:54:43;101451.13;;;11.77;100.00
57050;BME280;42935;50.966;16.992;2022-10-16T00:57:54;101446.84;;;11.79;100.00
57050;BME280;42935;50.966;16.992;2022-10-16T01:01:04;101456.40;;;11.85;100.00
57050;BME280;42935;50.966;16.992;2022-10-16T01:04:13;101443.18;;;11.86;100.00
57050;BME280;42935;50.966;16.992;2022-10-16T01:14:14;101460.45;;;11.70;100.00
57050;BME280;42935;50.966;16.992;2022-10-16T01:24:15;101442.57;;;11.70;100.00
57050;BME280;42935;50.966;16.992;2022-10-16T01:27:35;101445.18;;;11.70;100.00
57050;BME280;42935;50.966;16.992;2022-10-16T01:30:44;101459.56;;;11.70;100.00
57050;BME280;42935;50.966;16.992;2022-10-16T01:34:00;101439.82;;;11.56;100.00
57050;BME280;42935;50.966;16.992;2022-10-16T01:37:15;101444.70;;;11.38;100.00
57050;BME280;42935;50.966;16.992;2022-10-16T01:40:34;101456.53;;;11.39;100.00
57050;BME280;42935;50.966;16.992;2022-10-16T01:43:50;101448.30;;;11.37;100.00
57050;BME280;42935;50.966;16.992;2022-10-16T01:47:00;101448.67;;;11.46;100.00
57050;BME280;42935;50.966;16.992;2022-10-16T01:50:08;101448.10;;;11.49;100.00
57050;BME280;42935;50.966;16.992;2022-10-16T01:53:18;101448.71;;;11.38;100.00
57050;BME280;42935;50.966;16.992;2022-10-16T01:56:28;101450.98;;;11.32;100.00
57050;BME280;42935;50.966;16.992;2022-10-16T01:59:40;101448.59;;;11.20;100.00
57050;BME280;42935;50.966;16.992;2022-10-16T02:02:51;101454.09;;;11.35;100.00
57050;BME280;42935;50.966;16.992;2022-10-16T02:06:02;101452.63;;;11.46;100.00
57050;BME280;42935;50.966;16.992;2022-10-16T02:09:11;101442.75;;;11.43;100.00
57050;BME280;42935;50.966;16.992;2022-10-16T02:12:29;101450.65;;;11.49;100.00
57050;BME280;42935;50.966;16.992;2022-10-16T02:15:41;101457.67;;;11.47;100.00
57050;BME280;42935;50.966;16.992;2022-10-16T02:18:50;101456.48;;;11.55;100.00
57050;BME280;42935;50.966;16.992;2022-10-16T02:22:00;101454.29;;;11.59;100.00
57050;BME280;42935;50.966;16.992;2022-10-16T02:25:17;101460.87;;;11.69;100.00
57050;BME280;42935;50.966;16.992;2022-10-16T02:28:38;101462.08;;;11.74;100.00
57050;BME280;42935;50.966;16.992;2022-10-16T02:31:50;101478.30;;;11.87;100.00
57050;BME280;42935;50.966;16.992;2022-10-16T02:35:00;101477.89;;;11.95;100.00
57050;BME280;42935;50.966;16.992;2022-10-16T02:38:14;101472.32;;;12.02;100.00
57050;BME280;42935;50.966;16.992;2022-10-16T02:41:25;101473.29;;;12.02;100.00
57050;BME280;42935;50.966;16.992;2022-10-16T02:44:32;101482.59;;;12.02;100.00
57050;BME280;42935;50.966;16.992;2022-10-16T02:47:39;101486.28;;;12.12;100.00
57050;BME280;42935;50.966;16.992;2022-10-16T02:50:53;101461.07;;;12.01;100.00
57050;BME280;42935;50.966;16.992;2022-10-16T02:54:06;101471.84;;;12.12;100.00
57050;BME280;42935;50.966;16.992;2022-10-16T02:57:11;101469.17;;;12.11;100.00
57050;BME280;42935;50.966;16.992;2022-10-16T03:00:28;101469.00;;;12.19;100.00
57050;BME280;42935;50.966;16.992;2022-10-16T03:03:43;101485.61;;;12.21;100.00
57050;BME280;42935;50.966;16.992;2022-10-16T03:06:53;101466.77;;;12.16;100.00
57050;BME280;42935;50.966;16.992;2022-10-16T03:10:02;101489.24;;;12.31;100.00
57050;BME280;42935;50.966;16.992;2022-10-16T03:13:16;101478.27;;;12.31;100.00
57050;BME280;42935;50.966;16.992;2022-10-16T03:16:25;101485.37;;;12.46;100.00
57050;BME280;42935;50.966;16.992;2022-10-16T03:19:38;101488.66;;;12.46;100.00
57050;BME280;42935;50.966;16.992;2022-10-16T03:22:43;101491.68;;;12.51;100.00
57050;BME280;42935;50.966;16.992;2022-10-16T03:25:48;101492.73;;;12.50;100.00
57050;BME280;42935;50.966;16.992;2022-10-16T03:29:27;101481.05;;;12.43;100.00
57050;BME280;42935;50.966;16.992;2022-10-16T03:32:37;101502.81;;;12.68;100.00
57050;BME280;42935;50.966;16.992;2022-10-16T03:35:51;101506.52;;;12.77;100.00
57050;BME280;42935;50.966;16.992;2022-10-16T03:39:31;101520.27;;;12.84;100.00
57050;BME280;42935;50.966;16.992;2022-10-16T03:42:38;101515.05;;;12.80;100.00
57050;BME280;42935;50.966;16.992;2022-10-16T03:45:49;101520.73;;;12.86;100.00
57050;BME280;42935;50.966;16.992;2022-10-16T03:48:59;101520.17;;;12.76;100.00
57050;BME280;42935;50.966;16.992;2022-10-16T03:52:12;101523.18;;;12.74;100.00
57050;BME280;42935;50.966;16.992;2022-10-16T03:55:24;101518.25;;;12.67;100.00
57050;BME280;42935;50.966;16.992;2022-10-16T03:58:32;101520.52;;;12.67;100.00
57050;BME280;42935;50.966;16.992;2022-10-16T04:01:38;101510.91;;;12.50;100.00
57050;BME280;42935;50.966;16.992;2022-10-16T04:04:47;101511.40;;;12.40;100.00
57050;BME280;42935;50.966;16.992;2022-10-16T04:07:56;101516.34;;;12.50;100.00
57050;BME280;42935;50.966;16.992;2022-10-16T04:11:04;101517.53;;;12.43;100.00
57050;BME280;42935;50.966;16.992;2022-10-16T04:14:41;101534.23;;;12.33;100.00
57050;BME280;42935;50.966;16.992;2022-10-16T04:17:51;101539.30;;;12.26;100.00
57050;BME280;42935;50.966;16.992;2022-10-16T04:21:01;101539.00;;;12.19;100.00
57050;BME280;42935;50.966;16.992;2022-10-16T04:24:10;101544.59;;;12.25;100.00
57050;BME280;42935;50.966;16.992;2022-10-16T04:27:24;101538.48;;;12.10;100.00
57050;BME280;42935;50.966;16.992;2022-10-16T04:30:40;101545.57;;;12.16;100.00
57050;BME280;42935;50.966;16.992;2022-10-16T04:33:47;101548.25;;;12.05;100.00
57050;BME280;42935;50.966;16.992;2022-10-16T04:36:57;101535.63;;;11.93;100.00
57050;BME280;42935;50.966;16.992;2022-10-16T04:40:07;101548.45;;;11.85;100.00
57050;BME280;42935;50.966;16.992;2022-10-16T04:43:14;101550.40;;;11.90;100.00
57050;BME280;42935;50.966;16.992;2022-10-16T04:46:19;101557.72;;;11.89;100.00
57050;BME280;42935;50.966;16.992;2022-10-16T04:49:29;101550.27;;;11.89;100.00
57050;BME280;42935;50.966;16.992;2022-10-16T04:53:07;101544.83;;;11.80;100.00
57050;BME280;42935;50.966;16.992;2022-10-16T04:56:44;101562.19;;;11.90;100.00
57050;BME280;42935;50.966;16.992;2022-10-16T05:00:37;101560.84;;;11.68;100.00
57050;BME280;42935;50.966;16.992;2022-10-16T05:03:45;101552.69;;;11.62;100.00
57050;BME280;42935;50.966;16.992;2022-10-16T05:06:49;101554.98;;;11.76;100.00
57050;BME280;42935;50.966;16.992;2022-10-16T05:10:30;101572.30;;;11.88;100.00
57050;BME280;42935;50.966;16.992;2022-10-16T05:14:07;101577.97;;;12.07;100.00
57050;BME280;42935;50.966;16.992;2022-10-16T05:17:20;101579.00;;;12.14;100.00
57050;BME280;42935;50.966;16.992;2022-10-16T05:20:30;101570.00;;;12.14;100.00
57050;BME280;42935;50.966;16.992;2022-10-16T05:23:35;101562.01;;;12.23;100.00
57050;BME280;42935;50.966;16.992;2022-10-16T05:26:44;101572.91;;;12.22;100.00
57050;BME280;42935;50.966;16.992;2022-10-16T05:29:49;101575.53;;;12.30;100.00
57050;BME280;42935;50.966;16.992;2022-10-16T05:32:58;101563.73;;;12.26;100.00
57050;BME280;42935;50.966;16.992;2022-10-16T05:36:36;101551.02;;;12.14;100.00
57050;BME280;42935;50.966;16.992;2022-10-16T05:39:45;101563.14;;;12.38;100.00
57050;BME280;42935;50.966;16.992;2022-10-16T05:42:57;101574.05;;;12.53;100.00
57050;BME280;42935;50.966;16.992;2022-10-16T05:46:06;101565.91;;;12.59;100.00
57050;BME280;42935;50.966;16.992;2022-10-16T05:49:15;101569.68;;;12.74;100.00
57050;BME280;42935;50.966;16.992;2022-10-16T05:52:26;101561.27;;;12.84;100.00
57050;BME280;42935;50.966;16.992;2022-10-16T05:55:31;101574.48;;;13.05;100.00
57050;BME280;42935;50.966;16.992;2022-10-16T05:58:40;101578.44;;;13.11;100.00
57050;BME280;42935;50.966;16.992;2022-10-16T06:01:49;101593.62;;;13.24;100.00
57050;BME280;42935;50.966;16.992;2022-10-16T06:04:59;101596.11;;;13.33;100.00
57050;BME280;42935;50.966;16.992;2022-10-16T06:08:10;101598.67;;;13.41;100.00
57050;BME280;42935;50.966;16.992;2022-10-16T06:11:47;101597.91;;;13.48;100.00
57050;BME280;42935;50.966;16.992;2022-10-16T06:14:55;101601.43;;;13.56;100.00
57050;BME280;42935;50.966;16.992;2022-10-16T06:18:04;101602.90;;;13.57;100.00
57050;BME280;42935;50.966;16.992;2022-10-16T06:21:18;101606.52;;;13.61;100.00
57050;BME280;42935;50.966;16.992;2022-10-16T06:24:30;101599.89;;;13.59;100.00
57050;BME280;42935;50.966;16.992;2022-10-16T06:27:42;101603.76;;;13.62;100.00
57050;BME280;42935;50.966;16.992;2022-10-16T06:30:59;101607.64;;;13.67;100.00
57050;BME280;42935;50.966;16.992;2022-10-16T06:34:08;101619.71;;;13.80;100.00
57050;BME280;42935;50.966;16.992;2022-10-16T06:37:19;101613.51;;;13.84;100.00
57050;BME280;42935;50.966;16.992;2022-10-16T06:40:25;101615.74;;;13.90;100.00
57050;BME280;42935;50.966;16.992;2022-10-16T06:43:37;101641.45;;;14.04;100.00
57050;BME280;42935;50.966;16.992;2022-10-16T06:47:13;101644.05;;;14.15;100.00
57050;BME280;42935;50.966;16.992;2022-10-16T06:50:22;101652.50;;;14.21;100.00
57050;BME280;42935;50.966;16.992;2022-10-16T06:53:33;101655.09;;;14.27;100.00
57050;BME280;42935;50.966;16.992;2022-10-16T06:56:40;101657.06;;;14.26;100.00
57050;BME280;42935;50.966;16.992;2022-10-16T06:59:49;101662.27;;;14.20;100.00
57050;BME280;42935;50.966;16.992;2022-10-16T07:02:54;101674.09;;;14.30;100.00
57050;BME280;42935;50.966;16.992;2022-10-16T07:06:04;101666.47;;;14.29;100.00
57050;BME280;42935;50.966;16.992;2022-10-16T07:09:10;101670.87;;;14.40;100.00
57050;BME280;42935;50.966;16.992;2022-10-16T07:12:24;101675.65;;;14.42;100.00
57050;BME280;42935;50.966;16.992;2022-10-16T07:16:11;101683.41;;;14.48;100.00
57050;BME280;42935;50.966;16.992;2022-10-16T07:19:20;101683.36;;;14.56;100.00
57050;BME280;42935;50.966;16.992;2022-10-16T07:22:25;101679.48;;;14.64;100.00
57050;BME280;42935;50.966;16.992;2022-10-16T07:25:32;101669.57;;;14.67;100.00
57050;BME280;42935;50.966;16.992;2022-10-16T07:28:38;101665.41;;;14.74;100.00
57050;BME280;42935;50.966;16.992;2022-10-16T07:31:46;101661.27;;;14.87;100.00
57050;BME280;42935;50.966;16.992;2022-10-16T07:34:53;101675.34;;;14.97;100.00
57050;BME280;42935;50.966;16.992;2022-10-16T07:38:04;101679.85;;;15.04;100.00
57050;BME280;42935;50.966;16.992;2022-10-16T07:41:16;101667.95;;;15.07;100.00
57050;BME280;42935;50.966;16.992;2022-10-16T07:44:25;101677.77;;;15.22;100.00
57050;BME280;42935;50.966;16.992;2022-10-16T07:47:35;101663.54;;;15.26;100.00
57050;BME280;42935;50.966;16.992;2022-10-16T07:50:42;101675.55;;;15.44;100.00
57050;BME280;42935;50.966;16.992;2022-10-16T07:53:52;101675.51;;;15.42;100.00
57050;BME280;42935;50.966;16.992;2022-10-16T07:57:01;101681.67;;;15.61;100.00
57050;BME280;42935;50.966;16.992;2022-10-16T08:00:13;101667.08;;;15.70;100.00
57050;BME280;42935;50.966;16.992;2022-10-16T08:03:57;101685.85;;;15.93;100.00
57050;BME280;42935;50.966;16.992;2022-10-16T08:07:34;101688.84;;;16.07;100.00
57050;BME280;42935;50.966;16.992;2022-10-16T08:10:43;101683.34;;;16.15;100.00
57050;BME280;42935;50.966;16.992;2022-10-16T08:14:21;101690.79;;;16.23;100.00
57050;BME280;42935;50.966;16.992;2022-10-16T08:17:30;101691.07;;;16.31;100.00
57050;BME280;42935;50.966;16.992;2022-10-16T08:21:13;101697.45;;;16.46;100.00
57050;BME280;42935;50.966;16.992;2022-10-16T08:24:18;101705.09;;;16.54;100.00
57050;BME280;42935;50.966;16.992;2022-10-16T08:27:33;101705.86;;;16.60;100.00
57050;BME280;42935;50.966;16.992;2022-10-16T08:30:40;101707.15;;;16.72;100.00
57050;BME280;42935;50.966;16.992;2022-10-16T08:34:21;101697.89;;;16.75;100.00
57050;BME280;42935;50.966;16.992;2022-10-16T08:37:59;101701.95;;;16.88;100.00
57050;BME280;42935;50.966;16.992;2022-10-16T08:48:06;101724.96;;;17.24;100.00
57050;BME280;42935;50.966;16.992;2022-10-16T08:51:23;101717.41;;;17.20;100.00
57050;BME280;42935;50.966;16.992;2022-10-16T08:54:37;101723.21;;;17.30;100.00
57050;BME280;42935;50.966;16.992;2022-10-16T08:58:29;101723.05;;;17.40;100.00
57050;BME280;42935;50.966;16.992;2022-10-16T09:12:13;101733.41;;;17.69;100.00
57050;BME280;42935;50.966;16.992;2022-10-16T09:19:09;101735.57;;;17.87;100.00
57050;BME280;42935;50.966;16.992;2022-10-16T09:22:12;101741.53;;;17.86;100.00
57050;BME280;42935;50.966;16.992;2022-10-16T09:25:21;101744.29;;;17.89;100.00
57050;BME280;42935;50.966;16.992;2022-10-16T09:28:26;101730.88;;;17.86;100.00
57050;BME280;42935;50.966;16.992;2022-10-16T09:31:31;101744.66;;;18.02;100.00
57050;BME280;42935;50.966;16.992;2022-10-16T09:34:43;101747.63;;;18.15;100.00
57050;BME280;42935;50.966;16.992;2022-10-16T09:37:55;101741.98;;;18.08;100.00
57050;BME280;42935;50.966;16.992;2022-10-16T09:44:28;101733.52;;;18.26;100.00
57050;BME280;42935;50.966;16.992;2022-10-16T09:47:40;101738.87;;;18.42;100.00
57050;BME280;42935;50.966;16.992;2022-10-16T09:51:00;101728.79;;;18.45;100.00
57050;BME280;42935;50.966;16.992;2022-10-16T09:54:17;101721.09;;;18.72;100.00
57050;BME280;42935;50.966;16.992;2022-10-16T09:57:25;101730.56;;;19.03;100.00
57050;BME280;42935;50.966;16.992;2022-10-16T10:00:42;101737.16;;;19.55;100.00
57050;BME280;42935;50.966;16.992;2022-10-16T10:03:56;101727.73;;;19.85;100.00
57050;BME280;42935;50.966;16.992;2022-10-16T10:07:18;101727.40;;;20.05;100.00
57050;BME280;42935;50.966;16.992;2022-10-16T10:10:30;101734.20;;;20.18;100.00
57050;BME280;42935;50.966;16.992;2022-10-16T10:13:35;101732.20;;;19.98;100.00
57050;BME280;42935;50.966;16.992;2022-10-16T10:16:41;101736.79;;;19.62;100.00
57050;BME280;42935;50.966;16.992;2022-10-16T10:27:10;101710.42;;;19.36;100.00
57050;BME280;42935;50.966;16.992;2022-10-16T10:30:25;101735.88;;;19.70;100.00
57050;BME280;42935;50.966;16.992;2022-10-16T11:00:51;101742.66;;;19.09;100.00
57050;BME280;42935;50.966;16.992;2022-10-16T11:04:15;101728.46;;;19.38;100.00
57050;BME280;42935;50.966;16.992;2022-10-16T11:10:52;101724.12;;;18.75;100.00
57050;BME280;42935;50.966;16.992;2022-10-16T11:21:08;101716.83;;;18.80;100.00
57050;BME280;42935;50.966;16.992;2022-10-16T11:24:34;101726.60;;;18.79;100.00
57050;BME280;42935;50.966;16.992;2022-10-16T11:37:38;101721.34;;;19.65;100.00
57050;BME280;42935;50.966;16.992;2022-10-16T11:41:27;101729.57;;;20.15;100.00
57050;BME280;42935;50.966;16.992;2022-10-16T11:54:46;101727.80;;;19.42;100.00
57050;BME280;42935;50.966;16.992;2022-10-16T11:58:03;101736.87;;;19.28;100.00
57050;BME280;42935;50.966;16.992;2022-10-16T12:01:26;101729.96;;;19.07;100.00
57050;BME280;42935;50.966;16.992;2022-10-16T12:14:38;101750.43;;;18.87;100.00
57050;BME280;42935;50.966;16.992;2022-10-16T12:17:44;101762.09;;;18.66;100.00
57050;BME280;42935;50.966;16.992;2022-10-16T12:20:56;101769.56;;;18.62;100.00
57050;BME280;42935;50.966;16.992;2022-10-16T12:27:39;101774.20;;;18.47;100.00
57050;BME280;42935;50.966;16.992;2022-10-16T12:37:37;101785.48;;;18.53;100.00
57050;BME280;42935;50.966;16.992;2022-10-16T12:40:39;101785.05;;;18.66;100.00
57050;BME280;42935;50.966;16.992;2022-10-16T12:43:50;101788.76;;;18.71;100.00
57050;BME280;42935;50.966;16.992;2022-10-16T12:47:01;101787.54;;;18.64;100.00
57050;BME280;42935;50.966;16.992;2022-10-16T13:01:23;101777.46;;;18.82;100.00
57050;BME280;42935;50.966;16.992;2022-10-16T13:04:36;101790.69;;;18.88;100.00
57050;BME280;42935;50.966;16.992;2022-10-16T13:07:55;101793.95;;;18.85;100.00
57050;BME280;42935;50.966;16.992;2022-10-16T13:24:38;101803.89;;;19.34;100.00
57050;BME280;42935;50.966;16.992;2022-10-16T13:27:52;101807.61;;;19.42;100.00
57050;BME280;42935;50.966;16.992;2022-10-16T13:30:59;101792.63;;;19.45;100.00
57050;BME280;42935;50.966;16.992;2022-10-16T13:34:16;101796.64;;;19.72;100.00
57050;BME280;42935;50.966;16.992;2022-10-16T13:37:23;101797.16;;;19.73;100.00
57050;BME280;42935;50.966;16.992;2022-10-16T13:43:54;101804.49;;;20.78;100.00
57050;BME280;42935;50.966;16.992;2022-10-16T13:47:17;101806.45;;;21.20;100.00
57050;BME280;42935;50.966;16.992;2022-10-16T13:50:30;101813.21;;;21.17;95.61
57050;BME280;42935;50.966;16.992;2022-10-16T13:53:46;101800.48;;;21.70;93.57
57050;BME280;42935;50.966;16.992;2022-10-16T13:57:04;101809.52;;;21.72;90.73
57050;BME280;42935;50.966;16.992;2022-10-16T14:04:08;101804.53;;;21.20;91.46
57050;BME280;42935;50.966;16.992;2022-10-16T14:07:29;101818.98;;;21.09;96.98
57050;BME280;42935;50.966;16.992;2022-10-16T14:10:33;101825.98;;;21.67;91.12
57050;BME280;42935;50.966;16.992;2022-10-16T14:13:46;101830.07;;;21.88;87.26
57050;BME280;42935;50.966;16.992;2022-10-16T14:16:51;101833.20;;;22.02;86.37
57050;BME280;42935;50.966;16.992;2022-10-16T14:20:03;101837.40;;;22.28;85.43
57050;BME280;42935;50.966;16.992;2022-10-16T14:23:33;101826.27;;;22.20;87.06
57050;BME280;42935;50.966;16.992;2022-10-16T14:26:43;101834.51;;;22.06;84.57
57050;BME280;42935;50.966;16.992;2022-10-16T14:36:27;101837.09;;;21.25;87.94
57050;BME280;42935;50.966;16.992;2022-10-16T14:39:35;101833.91;;;20.68;97.15
57050;BME280;42935;50.966;16.992;2022-10-16T14:42:45;101829.34;;;20.27;99.94
57050;BME280;42935;50.966;16.992;2022-10-16T14:45:58;101831.66;;;20.08;100.00
57050;BME280;42935;50.966;16.992;2022-10-16T14:49:18;101834.71;;;19.95;100.00
57050;BME280;42935;50.966;16.992;2022-10-16T14:52:30;101795.22;;;19.70;100.00
57050;BME280;42935;50.966;16.992;2022-10-16T14:55:37;101845.17;;;19.77;100.00
57050;BME280;42935;50.966;16.992;2022-10-16T14:58:47;101846.77;;;19.62;100.00
57050;BME280;42935;50.966;16.992;2022-10-16T15:01:52;101851.15;;;19.67;100.00
57050;BME280;42935;50.966;16.992;2022-10-16T15:08:17;101856.24;;;19.44;100.00
57050;BME280;42935;50.966;16.992;2022-10-16T15:11:32;101851.17;;;19.44;100.00
57050;BME280;42935;50.966;16.992;2022-10-16T15:14:39;101830.05;;;19.14;100.00
57050;BME280;42935;50.966;16.992;2022-10-16T15:17:49;101851.42;;;19.19;100.00
57050;BME280;42935;50.966;16.992;2022-10-16T15:21:03;101851.81;;;18.97;100.00
57050;BME280;42935;50.966;16.992;2022-10-16T15:24:20;101861.83;;;18.84;100.00
57050;BME280;42935;50.966;16.992;2022-10-16T15:27:30;101822.68;;;18.41;100.00
57050;BME280;42935;50.966;16.992;2022-10-16T15:30:52;101862.88;;;18.74;100.00
57050;BME280;42935;50.966;16.992;2022-10-16T15:34:03;101864.07;;;18.71;100.00
57050;BME280;42935;50.966;16.992;2022-10-16T15:37:18;101844.41;;;18.64;100.00
57050;BME280;42935;50.966;16.992;2022-10-16T15:40:30;101859.95;;;18.65;100.00
57050;BME280;42935;50.966;16.992;2022-10-16T15:43:35;101866.54;;;18.58;100.00
57050;BME280;42935;50.966;16.992;2022-10-16T15:46:43;101847.03;;;18.42;100.00
57050;BME280;42935;50.966;16.992;2022-10-16T15:49:48;101862.20;;;18.37;100.00
57050;BME280;42935;50.966;16.992;2022-10-16T15:53:01;101875.08;;;18.13;100.00
57050;BME280;42935;50.966;16.992;2022-10-16T15:56:10;101882.23;;;17.94;100.00
57050;BME280;42935;50.966;16.992;2022-10-16T15:59:19;101902.94;;;17.88;100.00
57050;BME280;42935;50.966;16.992;2022-10-16T16:02:32;101906.46;;;17.85;100.00
57050;BME280;42935;50.966;16.992;2022-10-16T16:05:40;101912.86;;;17.73;100.00
57050;BME280;42935;50.966;16.992;2022-10-16T16:08:49;101909.45;;;17.61;100.00
57050;BME280;42935;50.966;16.992;2022-10-16T16:11:56;101917.67;;;17.60;100.00
57050;BME280;42935;50.966;16.992;2022-10-16T16:15:11;101923.68;;;17.35;100.00
57050;BME280;42935;50.966;16.992;2022-10-16T16:18:21;101899.83;;;17.16;100.00
57050;BME280;42935;50.966;16.992;2022-10-16T16:21:34;101929.72;;;17.08;100.00
57050;BME280;42935;50.966;16.992;2022-10-16T16:24:45;101897.58;;;16.82;100.00
57050;BME280;42935;50.966;16.992;2022-10-16T16:27:50;101935.30;;;17.06;100.00
57050;BME280;42935;50.966;16.992;2022-10-16T16:30:58;101923.66;;;16.88;100.00
57050;BME280;42935;50.966;16.992;2022-10-16T16:34:11;101948.53;;;16.91;100.00
57050;BME280;42935;50.966;16.992;2022-10-16T16:37:18;101944.20;;;16.80;100.00
57050;BME280;42935;50.966;16.992;2022-10-16T16:40:32;101958.36;;;16.31;100.00
57050;BME280;42935;50.966;16.992;2022-10-16T16:43:44;101956.84;;;16.17;100.00
57050;BME280;42935;50.966;16.992;2022-10-16T16:46:55;101969.99;;;16.03;100.00
57050;BME280;42935;50.966;16.992;2022-10-16T16:50:09;101970.84;;;16.15;100.00
57050;BME280;42935;50.966;16.992;2022-10-16T16:53:17;101961.48;;;16.25;100.00
57050;BME280;42935;50.966;16.992;2022-10-16T16:56:29;101965.61;;;16.25;100.00
57050;BME280;42935;50.966;16.992;2022-10-16T16:59:41;101963.72;;;16.33;100.00
57050;BME280;42935;50.966;16.992;2022-10-16T17:02:51;101969.28;;;16.30;100.00
57050;BME280;42935;50.966;16.992;2022-10-16T17:06:08;101978.70;;;16.27;100.00
57050;BME280;42935;50.966;16.992;2022-10-16T17:09:24;101988.28;;;16.29;100.00
57050;BME280;42935;50.966;16.992;2022-10-16T17:12:34;101996.02;;;16.27;100.00
57050;BME280;42935;50.966;16.992;2022-10-16T17:15:46;102000.86;;;16.11;100.00
57050;BME280;42935;50.966;16.992;2022-10-16T17:18:59;102011.98;;;15.94;100.00
57050;BME280;42935;50.966;16.992;2022-10-16T17:22:12;102006.36;;;15.91;100.00
57050;BME280;42935;50.966;16.992;2022-10-16T17:25:21;102011.34;;;15.90;100.00
57050;BME280;42935;50.966;16.992;2022-10-16T17:28:34;102030.14;;;15.94;100.00
57050;BME280;42935;50.966;16.992;2022-10-16T17:31:45;102017.59;;;15.84;100.00
57050;BME280;42935;50.966;16.992;2022-10-16T17:35:04;102032.33;;;15.82;100.00
57050;BME280;42935;50.966;16.992;2022-10-16T17:38:16;102038.37;;;15.75;100.00
57050;BME280;42935;50.966;16.992;2022-10-16T17:41:28;102033.94;;;15.59;100.00
57050;BME280;42935;50.966;16.992;2022-10-16T17:44:40;102045.39;;;15.56;100.00
57050;BME280;42935;50.966;16.992;2022-10-16T17:47:51;102037.76;;;15.27;100.00
57050;BME280;42935;50.966;16.992;2022-10-16T17:50:57;102055.02;;;15.15;100.00
57050;BME280;42935;50.966;16.992;2022-10-16T17:54:07;102048.08;;;15.07;100.00
57050;BME280;42935;50.966;16.992;2022-10-16T17:57:16;102052.90;;;15.12;100.00
57050;BME280;42935;50.966;16.992;2022-10-16T18:00:30;102057.58;;;15.11;100.00
57050;BME280;42935;50.966;16.992;2022-10-16T18:03:40;102062.91;;;15.10;100.00
57050;BME280;42935;50.966;16.992;2022-10-16T18:06:54;102073.56;;;15.14;100.00
57050;BME280;42935;50.966;16.992;2022-10-16T18:10:05;102065.68;;;15.05;100.00
57050;BME280;42935;50.966;16.992;2022-10-16T18:13:54;102074.24;;;15.06;100.00
57050;BME280;42935;50.966;16.992;2022-10-16T18:17:04;102062.89;;;14.89;100.00
57050;BME280;42935;50.966;16.992;2022-10-16T18:20:18;102081.78;;;14.94;100.00
57050;BME280;42935;50.966;16.992;2022-10-16T18:23:29;102081.93;;;14.79;100.00
57050;BME280;42935;50.966;16.992;2022-10-16T18:26:49;102093.61;;;14.74;100.00
57050;BME280;42935;50.966;16.992;2022-10-16T18:30:07;102087.83;;;14.71;100.00
57050;BME280;42935;50.966;16.992;2022-10-16T18:33:20;102093.93;;;14.71;100.00
57050;BME280;42935;50.966;16.992;2022-10-16T18:36:36;102090.29;;;14.63;100.00
57050;BME280;42935;50.966;16.992;2022-10-16T18:39:47;102094.37;;;14.74;100.00
57050;BME280;42935;50.966;16.992;2022-10-16T18:42:56;102097.32;;;14.83;100.00
57050;BME280;42935;50.966;16.992;2022-10-16T18:46:06;102079.44;;;14.71;100.00
57050;BME280;42935;50.966;16.992;2022-10-16T18:49:50;102101.17;;;14.56;100.00
57050;BME280;42935;50.966;16.992;2022-10-16T18:52:58;102115.60;;;14.31;100.00
57050;BME280;42935;50.966;16.992;2022-10-16T18:56:08;102117.16;;;14.29;100.00
57050;BME280;42935;50.966;16.992;2022-10-16T18:59:18;102103.38;;;14.22;100.00
57050;BME280;42935;50.966;16.992;2022-10-16T19:02:32;102116.77;;;14.25;100.00
57050;BME280;42935;50.966;16.992;2022-10-16T19:05:48;102126.48;;;14.24;100.00
57050;BME280;42935;50.966;16.992;2022-10-16T19:08:59;102121.13;;;14.07;100.00
57050;BME280;42935;50.966;16.992;2022-10-16T19:12:08;102136.89;;;14.04;100.00
57050;BME280;42935;50.966;16.992;2022-10-16T19:15:13;102138.87;;;13.90;100.00